Ana Sayfa
METAR-TAF:

METAR-TAF

Havaalanları :

Çangçun Longjia Uluslararası Havalimanı

Çangçun, Çin

Enlem: 43-54N, Boylam: 125-13E, yükseklik: 238 m

Güncel hava durumu gözlemi

Rapor saat 21:00 UTC de 47 dakika önce yapıldı.
Rüzgar güneybatıdan 4 kt, güney ve batı/güneybatı arasında değişken
Sıcaklık 20°C
Nem 83%
Basınç 1003 hPa
Görüş mesafesi: 8000 m

METAR: ZYCC 202100Z 22002MPS 180V240 8000 NSC 20/17 Q1003 NOSIG

Saat: 05:47 (21:47 UTC)

Tahmin

Rapor saat 15:07 UTC de 6 saat ve 40 dakika önce yapıldı.
Ayın 20'si saat 18 UTC'den ayın 21'si saat 18 UTC'ye kadar geçerli Tahmin
Rüzgar güneydan 8 kt
Görüş mesafesi: 6000 m
3000 ft yükseklikte parçalı bulutlu

TAF: ZYCC 201507Z 2018/2118 18004MPS 6000 SCT030 TX30/2106Z TN17/2021Z

4.000'den fazla havaalanı için hava durumu gözlemleri ve tahminleri (METAR ve TAF raporları).

Kullanılabilir istasyonlar harita üzerinde sarı ve kırmızı noktalarla gösterilir.

İstasyonun adını görmek için fareyi noktanın üzerinde gezdirin.

Sonrasında hava gözlem ve tahminlerini görmek için tıklayın.

Haritayı değiştirmek için: yaklaştırmak için siyah artı işaretli yeşil düğmeye ve uzaklaştırmak için de eksi işaretli düğmeye hızla tıklayın; bitişik haritalar için yeşil okları kullanın.


METAR-TAF: